sensor_id;sensor_type;location;lat;lon;timestamp;P1;durP1;ratioP1;P2;durP2;ratioP2
69542;SDS011;56762;49.494;11.768;2022-10-26T00:01:10;9.10;;;3.53;;
69542;SDS011;56762;49.494;11.768;2022-10-26T00:03:39;8.95;;;3.55;;
69542;SDS011;56762;49.494;11.768;2022-10-26T00:06:09;9.88;;;4.10;;
69542;SDS011;56762;49.494;11.768;2022-10-26T00:08:38;9.10;;;4.10;;
69542;SDS011;56762;49.494;11.768;2022-10-26T00:11:08;10.45;;;4.28;;
69542;SDS011;56762;49.494;11.768;2022-10-26T00:13:37;9.00;;;3.77;;
69542;SDS011;56762;49.494;11.768;2022-10-26T00:16:09;10.02;;;3.88;;
69542;SDS011;56762;49.494;11.768;2022-10-26T00:18:39;8.68;;;3.90;;
69542;SDS011;56762;49.494;11.768;2022-10-26T00:21:07;10.55;;;4.13;;
69542;SDS011;56762;49.494;11.768;2022-10-26T00:23:36;9.82;;;3.50;;
69542;SDS011;56762;49.494;11.768;2022-10-26T00:26:05;9.47;;;3.80;;
69542;SDS011;56762;49.494;11.768;2022-10-26T00:28:37;9.60;;;3.63;;
69542;SDS011;56762;49.494;11.768;2022-10-26T00:31:06;7.13;;;3.47;;
69542;SDS011;56762;49.494;11.768;2022-10-26T00:33:36;9.23;;;4.10;;
69542;SDS011;56762;49.494;11.768;2022-10-26T00:36:04;8.40;;;3.90;;
69542;SDS011;56762;49.494;11.768;2022-10-26T00:38:34;9.30;;;4.40;;
69542;SDS011;56762;49.494;11.768;2022-10-26T00:41:02;10.48;;;3.10;;
69542;SDS011;56762;49.494;11.768;2022-10-26T00:43:33;7.85;;;3.40;;
69542;SDS011;56762;49.494;11.768;2022-10-26T00:46:06;8.18;;;3.50;;
69542;SDS011;56762;49.494;11.768;2022-10-26T00:48:40;5.63;;;3.00;;
69542;SDS011;56762;49.494;11.768;2022-10-26T00:51:12;5.93;;;2.60;;
69542;SDS011;56762;49.494;11.768;2022-10-26T00:53:44;5.68;;;2.90;;
69542;SDS011;56762;49.494;11.768;2022-10-26T00:56:12;7.95;;;3.25;;
69542;SDS011;56762;49.494;11.768;2022-10-26T00:58:40;6.63;;;2.83;;
69542;SDS011;56762;49.494;11.768;2022-10-26T01:01:10;7.30;;;3.47;;
69542;SDS011;56762;49.494;11.768;2022-10-26T01:03:38;5.27;;;2.83;;
69542;SDS011;56762;49.494;11.768;2022-10-26T01:06:07;7.03;;;2.90;;
69542;SDS011;56762;49.494;11.768;2022-10-26T01:08:35;5.00;;;2.53;;
69542;SDS011;56762;49.494;11.768;2022-10-26T01:11:03;6.68;;;2.88;;
69542;SDS011;56762;49.494;11.768;2022-10-26T01:13:32;8.68;;;3.40;;
69542;SDS011;56762;49.494;11.768;2022-10-26T01:16:05;9.83;;;4.27;;
69542;SDS011;56762;49.494;11.768;2022-10-26T01:18:46;8.52;;;3.85;;
69542;SDS011;56762;49.494;11.768;2022-10-26T01:21:39;7.47;;;3.95;;
69542;SDS011;56762;49.494;11.768;2022-10-26T01:24:20;11.38;;;4.65;;
69542;SDS011;56762;49.494;11.768;2022-10-26T01:27:08;9.35;;;3.80;;
69542;SDS011;56762;49.494;11.768;2022-10-26T01:32:54;8.68;;;3.45;;
69542;SDS011;56762;49.494;11.768;2022-10-26T01:35:33;8.05;;;3.63;;
69542;SDS011;56762;49.494;11.768;2022-10-26T01:38:06;9.38;;;3.85;;
69542;SDS011;56762;49.494;11.768;2022-10-26T01:40:38;9.35;;;4.00;;
69542;SDS011;56762;49.494;11.768;2022-10-26T01:43:09;10.90;;;4.90;;
69542;SDS011;56762;49.494;11.768;2022-10-26T01:45:42;10.35;;;4.80;;
69542;SDS011;56762;49.494;11.768;2022-10-26T01:48:15;13.27;;;4.70;;
69542;SDS011;56762;49.494;11.768;2022-10-26T01:50:46;10.85;;;5.43;;
69542;SDS011;56762;49.494;11.768;2022-10-26T01:53:17;11.50;;;4.57;;
69542;SDS011;56762;49.494;11.768;2022-10-26T01:55:46;9.60;;;3.90;;
69542;SDS011;56762;49.494;11.768;2022-10-26T01:58:22;9.38;;;4.20;;
69542;SDS011;56762;49.494;11.768;2022-10-26T02:01:07;8.70;;;4.10;;
69542;SDS011;56762;49.494;11.768;2022-10-26T02:04:57;10.32;;;4.50;;
69542;SDS011;56762;49.494;11.768;2022-10-26T02:07:38;10.52;;;4.55;;
69542;SDS011;56762;49.494;11.768;2022-10-26T02:10:14;9.33;;;3.90;;
69542;SDS011;56762;49.494;11.768;2022-10-26T02:12:50;11.48;;;4.10;;
69542;SDS011;56762;49.494;11.768;2022-10-26T02:15:26;9.98;;;3.90;;
69542;SDS011;56762;49.494;11.768;2022-10-26T02:18:04;8.73;;;4.13;;
69542;SDS011;56762;49.494;11.768;2022-10-26T02:20:41;11.80;;;4.15;;
69542;SDS011;56762;49.494;11.768;2022-10-26T02:23:13;11.30;;;4.13;;
69542;SDS011;56762;49.494;11.768;2022-10-26T02:25:43;9.75;;;4.53;;
69542;SDS011;56762;49.494;11.768;2022-10-26T02:28:16;9.25;;;4.78;;
69542;SDS011;56762;49.494;11.768;2022-10-26T02:30:47;10.07;;;4.13;;
69542;SDS011;56762;49.494;11.768;2022-10-26T02:33:21;9.25;;;4.20;;
69542;SDS011;56762;49.494;11.768;2022-10-26T02:35:51;9.60;;;3.87;;
69542;SDS011;56762;49.494;11.768;2022-10-26T02:38:20;7.57;;;3.40;;
69542;SDS011;56762;49.494;11.768;2022-10-26T02:40:50;8.10;;;3.50;;
69542;SDS011;56762;49.494;11.768;2022-10-26T02:43:19;7.85;;;3.25;;
69542;SDS011;56762;49.494;11.768;2022-10-26T02:45:55;10.45;;;3.55;;
69542;SDS011;56762;49.494;11.768;2022-10-26T02:48:27;7.53;;;3.53;;
69542;SDS011;56762;49.494;11.768;2022-10-26T02:50:57;7.28;;;3.30;;
69542;SDS011;56762;49.494;11.768;2022-10-26T02:53:28;8.30;;;3.65;;
69542;SDS011;56762;49.494;11.768;2022-10-26T02:56:01;7.05;;;4.15;;
69542;SDS011;56762;49.494;11.768;2022-10-26T02:58:35;8.45;;;3.60;;
69542;SDS011;56762;49.494;11.768;2022-10-26T03:01:07;8.07;;;3.77;;
69542;SDS011;56762;49.494;11.768;2022-10-26T03:03:36;7.70;;;3.65;;
69542;SDS011;56762;49.494;11.768;2022-10-26T03:06:04;8.50;;;4.18;;
69542;SDS011;56762;49.494;11.768;2022-10-26T03:08:33;7.47;;;3.78;;
69542;SDS011;56762;49.494;11.768;2022-10-26T03:11:02;7.05;;;3.60;;
69542;SDS011;56762;49.494;11.768;2022-10-26T03:13:30;7.53;;;3.37;;
69542;SDS011;56762;49.494;11.768;2022-10-26T03:15:57;7.95;;;3.67;;
69542;SDS011;56762;49.494;11.768;2022-10-26T03:18:26;9.18;;;3.80;;
69542;SDS011;56762;49.494;11.768;2022-10-26T03:20:55;10.63;;;4.28;;
69542;SDS011;56762;49.494;11.768;2022-10-26T03:23:23;8.20;;;4.10;;
69542;SDS011;56762;49.494;11.768;2022-10-26T03:25:54;9.23;;;3.47;;
69542;SDS011;56762;49.494;11.768;2022-10-26T03:28:23;7.35;;;3.15;;
69542;SDS011;56762;49.494;11.768;2022-10-26T03:30:51;10.23;;;3.60;;
69542;SDS011;56762;49.494;11.768;2022-10-26T03:33:19;7.93;;;2.75;;
69542;SDS011;56762;49.494;11.768;2022-10-26T03:35:54;5.97;;;3.20;;
69542;SDS011;56762;49.494;11.768;2022-10-26T03:38:23;7.73;;;2.93;;
69542;SDS011;56762;49.494;11.768;2022-10-26T03:40:51;10.77;;;3.80;;
69542;SDS011;56762;49.494;11.768;2022-10-26T03:43:19;9.15;;;4.45;;
69542;SDS011;56762;49.494;11.768;2022-10-26T03:45:47;10.57;;;4.50;;
69542;SDS011;56762;49.494;11.768;2022-10-26T03:48:15;7.38;;;3.67;;
69542;SDS011;56762;49.494;11.768;2022-10-26T03:50:43;8.17;;;3.87;;
69542;SDS011;56762;49.494;11.768;2022-10-26T03:53:12;8.98;;;3.40;;
69542;SDS011;56762;49.494;11.768;2022-10-26T03:55:42;9.73;;;3.30;;
69542;SDS011;56762;49.494;11.768;2022-10-26T03:58:12;7.30;;;3.30;;
69542;SDS011;56762;49.494;11.768;2022-10-26T04:00:41;7.28;;;3.03;;
69542;SDS011;56762;49.494;11.768;2022-10-26T04:03:09;5.90;;;2.90;;
69542;SDS011;56762;49.494;11.768;2022-10-26T04:05:37;6.07;;;2.70;;
69542;SDS011;56762;49.494;11.768;2022-10-26T04:08:05;6.50;;;3.00;;
69542;SDS011;56762;49.494;11.768;2022-10-26T04:10:35;7.85;;;3.38;;
69542;SDS011;56762;49.494;11.768;2022-10-26T04:13:02;6.10;;;3.60;;
69542;SDS011;56762;49.494;11.768;2022-10-26T04:15:31;13.20;;;6.97;;
69542;SDS011;56762;49.494;11.768;2022-10-26T04:17:59;14.38;;;7.75;;
69542;SDS011;56762;49.494;11.768;2022-10-26T04:20:29;10.07;;;4.40;;
69542;SDS011;56762;49.494;11.768;2022-10-26T04:22:58;9.57;;;3.90;;
69542;SDS011;56762;49.494;11.768;2022-10-26T04:25:27;8.90;;;4.47;;
69542;SDS011;56762;49.494;11.768;2022-10-26T04:28:00;6.17;;;3.20;;
69542;SDS011;56762;49.494;11.768;2022-10-26T04:30:29;12.63;;;3.67;;
69542;SDS011;56762;49.494;11.768;2022-10-26T04:32:57;7.43;;;3.90;;
69542;SDS011;56762;49.494;11.768;2022-10-26T04:35:25;7.00;;;3.10;;
69542;SDS011;56762;49.494;11.768;2022-10-26T04:37:55;8.95;;;3.42;;
69542;SDS011;56762;49.494;11.768;2022-10-26T04:40:24;5.63;;;2.97;;
69542;SDS011;56762;49.494;11.768;2022-10-26T04:42:52;7.43;;;3.00;;
69542;SDS011;56762;49.494;11.768;2022-10-26T04:45:22;6.13;;;2.60;;
69542;SDS011;56762;49.494;11.768;2022-10-26T04:47:57;5.00;;;2.70;;
69542;SDS011;56762;49.494;11.768;2022-10-26T04:50:26;6.50;;;2.72;;
69542;SDS011;56762;49.494;11.768;2022-10-26T04:52:54;5.97;;;2.30;;
69542;SDS011;56762;49.494;11.768;2022-10-26T04:55:22;7.35;;;2.75;;
69542;SDS011;56762;49.494;11.768;2022-10-26T04:57:50;4.80;;;2.60;;
69542;SDS011;56762;49.494;11.768;2022-10-26T05:00:25;6.60;;;2.20;;
69542;SDS011;56762;49.494;11.768;2022-10-26T05:02:57;5.97;;;2.65;;
69542;SDS011;56762;49.494;11.768;2022-10-26T05:05:26;5.27;;;2.50;;
69542;SDS011;56762;49.494;11.768;2022-10-26T05:07:53;5.78;;;2.83;;
69542;SDS011;56762;49.494;11.768;2022-10-26T05:10:22;9.18;;;3.30;;
69542;SDS011;56762;49.494;11.768;2022-10-26T05:12:51;7.57;;;3.10;;
69542;SDS011;56762;49.494;11.768;2022-10-26T05:15:19;8.07;;;3.00;;
69542;SDS011;56762;49.494;11.768;2022-10-26T05:17:52;5.10;;;2.90;;
69542;SDS011;56762;49.494;11.768;2022-10-26T05:20:22;7.22;;;3.22;;
69542;SDS011;56762;49.494;11.768;2022-10-26T05:22:54;8.90;;;4.18;;
69542;SDS011;56762;49.494;11.768;2022-10-26T05:25:23;8.93;;;4.25;;
69542;SDS011;56762;49.494;11.768;2022-10-26T05:27:51;8.43;;;4.03;;
69542;SDS011;56762;49.494;11.768;2022-10-26T05:30:18;10.53;;;4.23;;
69542;SDS011;56762;49.494;11.768;2022-10-26T05:32:53;10.63;;;4.72;;
69542;SDS011;56762;49.494;11.768;2022-10-26T05:35:21;9.85;;;4.47;;
69542;SDS011;56762;49.494;11.768;2022-10-26T05:37:49;8.73;;;4.75;;
69542;SDS011;56762;49.494;11.768;2022-10-26T05:40:17;8.73;;;4.20;;
69542;SDS011;56762;49.494;11.768;2022-10-26T05:42:45;8.43;;;4.13;;
69542;SDS011;56762;49.494;11.768;2022-10-26T05:45:13;8.32;;;4.00;;
69542;SDS011;56762;49.494;11.768;2022-10-26T05:47:43;9.13;;;4.43;;
69542;SDS011;56762;49.494;11.768;2022-10-26T05:50:25;9.73;;;4.68;;
69542;SDS011;56762;49.494;11.768;2022-10-26T05:52:53;8.05;;;4.47;;
69542;SDS011;56762;49.494;11.768;2022-10-26T05:55:21;9.77;;;4.67;;
69542;SDS011;56762;49.494;11.768;2022-10-26T05:57:50;8.68;;;3.95;;
69542;SDS011;56762;49.494;11.768;2022-10-26T06:00:19;8.02;;;5.32;;
69542;SDS011;56762;49.494;11.768;2022-10-26T06:02:55;10.02;;;5.45;;
69542;SDS011;56762;49.494;11.768;2022-10-26T06:05:36;12.02;;;4.68;;
69542;SDS011;56762;49.494;11.768;2022-10-26T06:08:10;9.37;;;5.10;;
69542;SDS011;56762;49.494;11.768;2022-10-26T06:10:39;9.30;;;4.43;;
69542;SDS011;56762;49.494;11.768;2022-10-26T06:13:07;8.05;;;4.78;;
69542;SDS011;56762;49.494;11.768;2022-10-26T06:15:39;11.85;;;4.97;;
69542;SDS011;56762;49.494;11.768;2022-10-26T06:18:18;10.90;;;5.25;;
69542;SDS011;56762;49.494;11.768;2022-10-26T06:20:57;11.90;;;6.60;;
69542;SDS011;56762;49.494;11.768;2022-10-26T06:23:38;13.13;;;7.93;;
69542;SDS011;56762;49.494;11.768;2022-10-26T06:26:14;14.20;;;6.90;;
69542;SDS011;56762;49.494;11.768;2022-10-26T06:28:49;9.40;;;5.63;;
69542;SDS011;56762;49.494;11.768;2022-10-26T06:31:24;9.63;;;4.63;;
69542;SDS011;56762;49.494;11.768;2022-10-26T06:33:55;8.20;;;4.70;;
69542;SDS011;56762;49.494;11.768;2022-10-26T06:36:29;7.75;;;4.47;;
69542;SDS011;56762;49.494;11.768;2022-10-26T06:39:02;12.27;;;5.03;;
69542;SDS011;56762;49.494;11.768;2022-10-26T06:41:33;9.82;;;4.72;;
69542;SDS011;56762;49.494;11.768;2022-10-26T06:44:04;16.75;;;6.50;;
69542;SDS011;56762;49.494;11.768;2022-10-26T06:46:35;23.17;;;9.17;;
69542;SDS011;56762;49.494;11.768;2022-10-26T06:49:10;13.77;;;7.90;;
69542;SDS011;56762;49.494;11.768;2022-10-26T06:51:48;15.70;;;7.57;;
69542;SDS011;56762;49.494;11.768;2022-10-26T06:54:24;16.80;;;7.93;;
69542;SDS011;56762;49.494;11.768;2022-10-26T06:57:07;13.77;;;7.15;;
69542;SDS011;56762;49.494;11.768;2022-10-26T06:59:37;16.37;;;8.00;;
69542;SDS011;56762;49.494;11.768;2022-10-26T07:02:09;12.27;;;6.20;;
69542;SDS011;56762;49.494;11.768;2022-10-26T07:04:38;12.65;;;5.72;;
69542;SDS011;56762;49.494;11.768;2022-10-26T07:07:08;19.10;;;7.47;;
69542;SDS011;56762;49.494;11.768;2022-10-26T07:09:39;15.30;;;6.15;;
69542;SDS011;56762;49.494;11.768;2022-10-26T07:12:07;16.93;;;5.83;;
69542;SDS011;56762;49.494;11.768;2022-10-26T07:14:34;26.58;;;12.23;;
69542;SDS011;56762;49.494;11.768;2022-10-26T07:17:03;29.65;;;12.65;;
69542;SDS011;56762;49.494;11.768;2022-10-26T07:19:32;17.83;;;8.80;;
69542;SDS011;56762;49.494;11.768;2022-10-26T07:22:00;13.82;;;6.10;;
69542;SDS011;56762;49.494;11.768;2022-10-26T07:24:29;13.23;;;4.80;;
69542;SDS011;56762;49.494;11.768;2022-10-26T07:26:58;12.18;;;7.50;;
69542;SDS011;56762;49.494;11.768;2022-10-26T07:29:26;9.70;;;5.47;;
69542;SDS011;56762;49.494;11.768;2022-10-26T07:31:55;10.98;;;6.22;;
69542;SDS011;56762;49.494;11.768;2022-10-26T07:34:23;13.18;;;7.68;;
69542;SDS011;56762;49.494;11.768;2022-10-26T07:36:51;14.47;;;9.70;;
69542;SDS011;56762;49.494;11.768;2022-10-26T07:39:19;13.00;;;7.78;;
69542;SDS011;56762;49.494;11.768;2022-10-26T07:41:48;11.05;;;6.82;;
69542;SDS011;56762;49.494;11.768;2022-10-26T07:44:18;8.95;;;5.63;;
69542;SDS011;56762;49.494;11.768;2022-10-26T07:46:46;8.57;;;5.15;;
69542;SDS011;56762;49.494;11.768;2022-10-26T07:49:14;9.80;;;5.63;;
69542;SDS011;56762;49.494;11.768;2022-10-26T07:51:44;7.60;;;4.72;;
69542;SDS011;56762;49.494;11.768;2022-10-26T07:54:13;8.05;;;4.50;;
69542;SDS011;56762;49.494;11.768;2022-10-26T07:56:41;8.77;;;4.82;;
69542;SDS011;56762;49.494;11.768;2022-10-26T07:59:11;10.50;;;4.65;;
69542;SDS011;56762;49.494;11.768;2022-10-26T08:01:39;10.33;;;4.70;;
69542;SDS011;56762;49.494;11.768;2022-10-26T08:04:07;8.70;;;5.00;;
69542;SDS011;56762;49.494;11.768;2022-10-26T08:06:35;10.32;;;5.28;;
69542;SDS011;56762;49.494;11.768;2022-10-26T08:09:04;8.15;;;5.00;;
69542;SDS011;56762;49.494;11.768;2022-10-26T08:11:32;8.68;;;5.18;;
69542;SDS011;56762;49.494;11.768;2022-10-26T08:14:02;7.87;;;4.67;;
69542;SDS011;56762;49.494;11.768;2022-10-26T08:16:34;9.68;;;4.85;;
69542;SDS011;56762;49.494;11.768;2022-10-26T08:19:05;7.22;;;4.13;;
69542;SDS011;56762;49.494;11.768;2022-10-26T08:21:34;10.60;;;4.82;;
69542;SDS011;56762;49.494;11.768;2022-10-26T08:24:05;8.05;;;5.30;;
69542;SDS011;56762;49.494;11.768;2022-10-26T08:26:33;8.57;;;4.87;;
69542;SDS011;56762;49.494;11.768;2022-10-26T08:29:02;7.18;;;4.55;;
69542;SDS011;56762;49.494;11.768;2022-10-26T08:31:29;6.97;;;4.20;;
69542;SDS011;56762;49.494;11.768;2022-10-26T08:33:59;9.15;;;4.95;;
69542;SDS011;56762;49.494;11.768;2022-10-26T08:36:29;9.07;;;5.45;;
69542;SDS011;56762;49.494;11.768;2022-10-26T08:38:57;8.87;;;5.00;;
69542;SDS011;56762;49.494;11.768;2022-10-26T08:41:28;8.98;;;5.57;;
69542;SDS011;56762;49.494;11.768;2022-10-26T08:44:04;9.57;;;5.55;;
69542;SDS011;56762;49.494;11.768;2022-10-26T08:46:40;8.52;;;6.07;;
69542;SDS011;56762;49.494;11.768;2022-10-26T08:49:17;9.23;;;6.10;;
69542;SDS011;56762;49.494;11.768;2022-10-26T08:51:47;10.13;;;6.80;;
69542;SDS011;56762;49.494;11.768;2022-10-26T08:54:21;9.90;;;7.18;;
69542;SDS011;56762;49.494;11.768;2022-10-26T08:57:01;11.23;;;7.85;;
69542;SDS011;56762;49.494;11.768;2022-10-26T08:59:37;8.95;;;6.32;;
69542;SDS011;56762;49.494;11.768;2022-10-26T09:02:10;11.85;;;7.43;;
69542;SDS011;56762;49.494;11.768;2022-10-26T09:04:41;11.87;;;7.63;;
69542;SDS011;56762;49.494;11.768;2022-10-26T09:07:11;8.45;;;5.80;;
69542;SDS011;56762;49.494;11.768;2022-10-26T09:09:50;10.02;;;5.30;;
69542;SDS011;56762;49.494;11.768;2022-10-26T09:12:27;10.13;;;5.65;;
69542;SDS011;56762;49.494;11.768;2022-10-26T09:15:07;9.20;;;4.93;;
69542;SDS011;56762;49.494;11.768;2022-10-26T09:17:41;8.50;;;5.00;;
69542;SDS011;56762;49.494;11.768;2022-10-26T09:26:20;8.32;;;5.47;;
69542;SDS011;56762;49.494;11.768;2022-10-26T09:28:56;10.00;;;5.05;;
69542;SDS011;56762;49.494;11.768;2022-10-26T09:31:37;7.33;;;5.03;;
69542;SDS011;56762;49.494;11.768;2022-10-26T09:34:12;8.48;;;5.28;;
69542;SDS011;56762;49.494;11.768;2022-10-26T09:36:46;8.95;;;5.03;;
69542;SDS011;56762;49.494;11.768;2022-10-26T09:39:22;7.13;;;4.95;;
69542;SDS011;56762;49.494;11.768;2022-10-26T09:41:57;6.20;;;4.25;;
69542;SDS011;56762;49.494;11.768;2022-10-26T09:44:32;7.33;;;4.77;;
69542;SDS011;56762;49.494;11.768;2022-10-26T09:47:04;10.60;;;4.75;;
69542;SDS011;56762;49.494;11.768;2022-10-26T09:49:43;7.43;;;4.82;;
69542;SDS011;56762;49.494;11.768;2022-10-26T09:52:15;7.13;;;4.70;;
69542;SDS011;56762;49.494;11.768;2022-10-26T09:54:44;14.20;;;7.28;;
69542;SDS011;56762;49.494;11.768;2022-10-26T09:57:13;11.03;;;5.97;;
69542;SDS011;56762;49.494;11.768;2022-10-26T09:59:42;10.73;;;5.97;;
69542;SDS011;56762;49.494;11.768;2022-10-26T10:02:32;8.82;;;5.28;;
69542;SDS011;56762;49.494;11.768;2022-10-26T10:05:02;6.82;;;5.00;;
69542;SDS011;56762;49.494;11.768;2022-10-26T10:08:10;7.10;;;3.92;;
69542;SDS011;56762;49.494;11.768;2022-10-26T10:11:00;6.67;;;3.50;;
69542;SDS011;56762;49.494;11.768;2022-10-26T10:13:32;6.55;;;4.20;;
69542;SDS011;56762;49.494;11.768;2022-10-26T10:16:04;5.97;;;3.55;;
69542;SDS011;56762;49.494;11.768;2022-10-26T10:18:34;7.68;;;3.45;;
69542;SDS011;56762;49.494;11.768;2022-10-26T10:21:04;6.50;;;2.67;;
69542;SDS011;56762;49.494;11.768;2022-10-26T10:23:33;5.17;;;2.53;;
69542;SDS011;56762;49.494;11.768;2022-10-26T10:26:16;4.22;;;2.40;;
69542;SDS011;56762;49.494;11.768;2022-10-26T10:28:55;4.20;;;2.38;;
69542;SDS011;56762;49.494;11.768;2022-10-26T10:31:28;6.38;;;2.63;;
69542;SDS011;56762;49.494;11.768;2022-10-26T10:33:59;3.92;;;2.38;;
69542;SDS011;56762;49.494;11.768;2022-10-26T10:36:29;7.10;;;2.13;;
69542;SDS011;56762;49.494;11.768;2022-10-26T10:38:57;4.78;;;1.85;;
69542;SDS011;56762;49.494;11.768;2022-10-26T10:41:28;4.57;;;1.98;;
69542;SDS011;56762;49.494;11.768;2022-10-26T10:44:00;5.28;;;2.10;;
69542;SDS011;56762;49.494;11.768;2022-10-26T10:46:32;4.47;;;2.10;;
69542;SDS011;56762;49.494;11.768;2022-10-26T10:49:03;2.77;;;1.80;;
69542;SDS011;56762;49.494;11.768;2022-10-26T10:51:37;3.53;;;1.90;;
69542;SDS011;56762;49.494;11.768;2022-10-26T10:54:14;4.07;;;1.60;;
69542;SDS011;56762;49.494;11.768;2022-10-26T10:56:50;3.30;;;1.73;;
69542;SDS011;56762;49.494;11.768;2022-10-26T11:02:20;3.73;;;2.23;;
69542;SDS011;56762;49.494;11.768;2022-10-26T11:05:12;3.88;;;1.67;;
69542;SDS011;56762;49.494;11.768;2022-10-26T11:07:53;5.30;;;2.35;;
69542;SDS011;56762;49.494;11.768;2022-10-26T11:10:25;3.70;;;2.10;;
69542;SDS011;56762;49.494;11.768;2022-10-26T11:12:58;5.43;;;2.17;;
69542;SDS011;56762;49.494;11.768;2022-10-26T11:15:32;6.07;;;2.40;;
69542;SDS011;56762;49.494;11.768;2022-10-26T11:18:05;5.38;;;2.30;;
69542;SDS011;56762;49.494;11.768;2022-10-26T11:20:40;6.93;;;2.60;;
69542;SDS011;56762;49.494;11.768;2022-10-26T11:23:14;5.25;;;2.80;;
69542;SDS011;56762;49.494;11.768;2022-10-26T11:25:48;5.07;;;2.30;;
69542;SDS011;56762;49.494;11.768;2022-10-26T11:28:25;5.13;;;2.47;;
69542;SDS011;56762;49.494;11.768;2022-10-26T11:31:09;4.35;;;2.00;;
69542;SDS011;56762;49.494;11.768;2022-10-26T11:33:42;4.85;;;2.20;;
69542;SDS011;56762;49.494;11.768;2022-10-26T11:36:15;7.75;;;2.47;;
69542;SDS011;56762;49.494;11.768;2022-10-26T11:38:48;4.78;;;2.20;;
69542;SDS011;56762;49.494;11.768;2022-10-26T11:41:23;4.00;;;2.07;;
69542;SDS011;56762;49.494;11.768;2022-10-26T11:44:00;4.43;;;1.55;;
69542;SDS011;56762;49.494;11.768;2022-10-26T11:46:33;4.03;;;2.03;;
69542;SDS011;56762;49.494;11.768;2022-10-26T11:49:05;4.78;;;1.77;;
69542;SDS011;56762;49.494;11.768;2022-10-26T11:51:41;5.47;;;2.35;;
69542;SDS011;56762;49.494;11.768;2022-10-26T11:54:14;5.43;;;1.63;;
69542;SDS011;56762;49.494;11.768;2022-10-26T11:56:46;3.45;;;1.40;;
69542;SDS011;56762;49.494;11.768;2022-10-26T11:59:18;8.02;;;1.85;;
69542;SDS011;56762;49.494;11.768;2022-10-26T12:01:48;5.35;;;1.83;;
69542;SDS011;56762;49.494;11.768;2022-10-26T12:04:19;4.13;;;1.38;;
69542;SDS011;56762;49.494;11.768;2022-10-26T12:06:50;3.47;;;1.00;;
69542;SDS011;56762;49.494;11.768;2022-10-26T12:09:19;4.78;;;0.90;;
69542;SDS011;56762;49.494;11.768;2022-10-26T12:11:50;3.13;;;1.00;;
69542;SDS011;56762;49.494;11.768;2022-10-26T12:14:25;1.95;;;0.70;;
69542;SDS011;56762;49.494;11.768;2022-10-26T12:16:58;3.78;;;0.77;;
69542;SDS011;56762;49.494;11.768;2022-10-26T12:19:35;3.10;;;0.77;;
69542;SDS011;56762;49.494;11.768;2022-10-26T12:22:10;3.22;;;0.80;;
69542;SDS011;56762;49.494;11.768;2022-10-26T12:24:42;3.70;;;0.90;;
69542;SDS011;56762;49.494;11.768;2022-10-26T12:27:30;2.72;;;1.10;;
69542;SDS011;56762;49.494;11.768;2022-10-26T12:30:21;2.58;;;0.98;;
69542;SDS011;56762;49.494;11.768;2022-10-26T12:32:55;1.63;;;0.60;;
69542;SDS011;56762;49.494;11.768;2022-10-26T12:35:28;3.22;;;0.88;;
69542;SDS011;56762;49.494;11.768;2022-10-26T12:37:59;3.78;;;0.93;;
69542;SDS011;56762;49.494;11.768;2022-10-26T12:40:38;3.60;;;1.10;;
69542;SDS011;56762;49.494;11.768;2022-10-26T12:52:31;6.57;;;1.92;;
69542;SDS011;56762;49.494;11.768;2022-10-26T12:55:14;4.20;;;2.10;;
69542;SDS011;56762;49.494;11.768;2022-10-26T12:58:33;3.72;;;1.70;;
69542;SDS011;56762;49.494;11.768;2022-10-26T13:01:41;5.50;;;2.10;;
69542;SDS011;56762;49.494;11.768;2022-10-26T13:04:40;3.78;;;1.55;;
69542;SDS011;56762;49.494;11.768;2022-10-26T13:07:46;6.72;;;1.70;;
69542;SDS011;56762;49.494;11.768;2022-10-26T13:10:17;4.93;;;1.50;;
69542;SDS011;56762;49.494;11.768;2022-10-26T13:12:49;4.43;;;1.58;;
69542;SDS011;56762;49.494;11.768;2022-10-26T13:15:22;5.77;;;2.20;;
69542;SDS011;56762;49.494;11.768;2022-10-26T13:17:53;3.38;;;2.15;;
69542;SDS011;56762;49.494;11.768;2022-10-26T13:20:26;4.45;;;2.10;;
69542;SDS011;56762;49.494;11.768;2022-10-26T13:22:58;3.78;;;1.90;;
69542;SDS011;56762;49.494;11.768;2022-10-26T13:25:27;3.95;;;1.90;;
69542;SDS011;56762;49.494;11.768;2022-10-26T13:27:59;5.33;;;2.37;;
69542;SDS011;56762;49.494;11.768;2022-10-26T13:33:24;5.18;;;1.80;;
69542;SDS011;56762;49.494;11.768;2022-10-26T13:36:00;3.67;;;1.70;;
69542;SDS011;56762;49.494;11.768;2022-10-26T13:38:32;5.68;;;1.98;;
69542;SDS011;56762;49.494;11.768;2022-10-26T13:41:05;4.40;;;1.70;;
69542;SDS011;56762;49.494;11.768;2022-10-26T13:43:40;4.82;;;1.38;;
69542;SDS011;56762;49.494;11.768;2022-10-26T13:46:17;3.75;;;1.02;;
69542;SDS011;56762;49.494;11.768;2022-10-26T13:48:50;3.08;;;1.15;;
69542;SDS011;56762;49.494;11.768;2022-10-26T13:51:22;2.88;;;1.23;;
69542;SDS011;56762;49.494;11.768;2022-10-26T13:53:56;4.50;;;1.60;;
69542;SDS011;56762;49.494;11.768;2022-10-26T13:56:30;4.18;;;1.75;;
69542;SDS011;56762;49.494;11.768;2022-10-26T13:59:01;4.80;;;1.95;;
69542;SDS011;56762;49.494;11.768;2022-10-26T14:01:31;3.97;;;2.15;;
69542;SDS011;56762;49.494;11.768;2022-10-26T14:04:12;4.85;;;2.25;;
69542;SDS011;56762;49.494;11.768;2022-10-26T14:06:41;5.53;;;2.50;;
69542;SDS011;56762;49.494;11.768;2022-10-26T14:09:14;4.43;;;2.00;;
69542;SDS011;56762;49.494;11.768;2022-10-26T14:11:45;3.75;;;2.72;;
69542;SDS011;56762;49.494;11.768;2022-10-26T14:14:17;6.82;;;4.18;;
69542;SDS011;56762;49.494;11.768;2022-10-26T14:16:47;7.18;;;3.60;;
69542;SDS011;56762;49.494;11.768;2022-10-26T14:19:19;5.60;;;2.60;;
69542;SDS011;56762;49.494;11.768;2022-10-26T14:21:52;4.72;;;2.50;;
69542;SDS011;56762;49.494;11.768;2022-10-26T14:24:23;3.90;;;2.17;;
69542;SDS011;56762;49.494;11.768;2022-10-26T14:27:13;7.10;;;2.88;;
69542;SDS011;56762;49.494;11.768;2022-10-26T14:29:42;7.15;;;3.20;;
69542;SDS011;56762;49.494;11.768;2022-10-26T14:32:25;9.40;;;4.03;;
69542;SDS011;56762;49.494;11.768;2022-10-26T14:34:54;11.40;;;5.13;;
69542;SDS011;56762;49.494;11.768;2022-10-26T14:37:24;9.05;;;4.70;;
69542;SDS011;56762;49.494;11.768;2022-10-26T14:40:03;7.45;;;3.95;;
69542;SDS011;56762;49.494;11.768;2022-10-26T14:42:33;3.70;;;1.80;;
69542;SDS011;56762;49.494;11.768;2022-10-26T14:45:05;6.17;;;1.80;;
69542;SDS011;56762;49.494;11.768;2022-10-26T14:47:55;11.48;;;2.28;;
69542;SDS011;56762;49.494;11.768;2022-10-26T14:50:23;6.30;;;2.17;;
69542;SDS011;56762;49.494;11.768;2022-10-26T14:52:56;4.22;;;1.63;;
69542;SDS011;56762;49.494;11.768;2022-10-26T14:55:28;6.75;;;2.08;;
69542;SDS011;56762;49.494;11.768;2022-10-26T14:58:05;4.30;;;1.80;;
69542;SDS011;56762;49.494;11.768;2022-10-26T15:00:34;5.30;;;1.60;;
69542;SDS011;56762;49.494;11.768;2022-10-26T15:03:02;4.32;;;1.50;;
69542;SDS011;56762;49.494;11.768;2022-10-26T15:05:31;4.50;;;1.50;;
69542;SDS011;56762;49.494;11.768;2022-10-26T15:08:01;2.78;;;1.00;;
69542;SDS011;56762;49.494;11.768;2022-10-26T15:10:47;2.80;;;0.90;;
69542;SDS011;56762;49.494;11.768;2022-10-26T15:13:18;4.28;;;1.60;;
69542;SDS011;56762;49.494;11.768;2022-10-26T15:15:53;3.38;;;1.30;;
69542;SDS011;56762;49.494;11.768;2022-10-26T15:18:24;4.82;;;1.20;;
69542;SDS011;56762;49.494;11.768;2022-10-26T15:20:54;3.13;;;1.08;;
69542;SDS011;56762;49.494;11.768;2022-10-26T15:23:24;4.37;;;1.20;;
69542;SDS011;56762;49.494;11.768;2022-10-26T15:25:56;5.55;;;1.10;;
69542;SDS011;56762;49.494;11.768;2022-10-26T15:28:28;4.28;;;1.40;;